sensor_id;sensor_type;location;lat;lon;timestamp;temperature;humidity
13833;DHT22;6987;19.472;-99.276;2022-08-21T16:31:17;20.10;99.90
13833;DHT22;6987;19.472;-99.276;2022-08-21T16:33:50;20.30;99.90
13833;DHT22;6987;19.472;-99.276;2022-08-21T16:36:20;20.20;99.90
13833;DHT22;6987;19.472;-99.276;2022-08-21T16:38:52;20.00;99.90
13833;DHT22;6987;19.472;-99.276;2022-08-21T16:41:25;19.90;99.90
13833;DHT22;6987;19.472;-99.276;2022-08-21T16:43:55;20.00;99.90
13833;DHT22;6987;19.472;-99.276;2022-08-21T16:46:33;20.00;99.90
13833;DHT22;6987;19.472;-99.276;2022-08-21T16:49:03;20.00;99.90
13833;DHT22;6987;19.472;-99.276;2022-08-21T16:51:33;20.20;99.90
13833;DHT22;6987;19.472;-99.276;2022-08-21T16:54:02;20.20;99.90
13833;DHT22;6987;19.472;-99.276;2022-08-21T16:56:33;20.40;99.90
13833;DHT22;6987;19.472;-99.276;2022-08-21T16:59:04;20.70;99.90
13833;DHT22;6987;19.472;-99.276;2022-08-21T17:01:33;20.80;99.90
13833;DHT22;6987;19.472;-99.276;2022-08-21T17:04:04;20.90;99.90
13833;DHT22;6987;19.472;-99.276;2022-08-21T17:06:33;21.00;99.90
13833;DHT22;6987;19.472;-99.276;2022-08-21T17:09:02;21.00;99.90
13833;DHT22;6987;19.472;-99.276;2022-08-21T17:11:36;21.10;99.90
13833;DHT22;6987;19.472;-99.276;2022-08-21T17:14:09;21.10;99.90
13833;DHT22;6987;19.472;-99.276;2022-08-21T17:16:40;21.10;99.90
13833;DHT22;6987;19.472;-99.276;2022-08-21T17:19:09;21.10;99.90
13833;DHT22;6987;19.472;-99.276;2022-08-21T17:21:39;21.00;99.90
13833;DHT22;6987;19.472;-99.276;2022-08-21T17:24:09;21.00;99.90
13833;DHT22;6987;19.472;-99.276;2022-08-21T17:26:41;21.00;99.90
13833;DHT22;6987;19.472;-99.276;2022-08-21T17:29:12;20.90;99.90
13833;DHT22;6987;19.472;-99.276;2022-08-21T17:31:42;21.00;99.90
13833;DHT22;6987;19.472;-99.276;2022-08-21T17:34:12;20.90;99.90
13833;DHT22;6987;19.472;-99.276;2022-08-21T17:36:41;20.90;99.90
13833;DHT22;6987;19.472;-99.276;2022-08-21T17:39:11;20.80;99.90
13833;DHT22;6987;19.472;-99.276;2022-08-21T17:41:44;20.80;99.90
13833;DHT22;6987;19.472;-99.276;2022-08-21T17:44:16;20.70;99.90
13833;DHT22;6987;19.472;-99.276;2022-08-21T17:46:47;20.70;99.90
13833;DHT22;6987;19.472;-99.276;2022-08-21T17:49:16;20.70;99.90
13833;DHT22;6987;19.472;-99.276;2022-08-21T17:51:46;20.70;99.90
13833;DHT22;6987;19.472;-99.276;2022-08-21T17:54:15;20.60;99.90
13833;DHT22;6987;19.472;-99.276;2022-08-21T17:56:46;20.80;99.90
13833;DHT22;6987;19.472;-99.276;2022-08-21T17:59:15;21.10;99.90
13833;DHT22;6987;19.472;-99.276;2022-08-21T18:01:45;21.20;99.90
13833;DHT22;6987;19.472;-99.276;2022-08-21T18:04:15;21.20;99.90
13833;DHT22;6987;19.472;-99.276;2022-08-21T18:06:45;21.30;99.90
13833;DHT22;6987;19.472;-99.276;2022-08-21T18:09:14;21.20;99.90
13833;DHT22;6987;19.472;-99.276;2022-08-21T18:11:46;21.20;99.90
13833;DHT22;6987;19.472;-99.276;2022-08-21T18:14:15;21.10;99.90
13833;DHT22;6987;19.472;-99.276;2022-08-21T18:16:45;21.00;99.90
13833;DHT22;6987;19.472;-99.276;2022-08-21T18:19:15;21.10;99.90
13833;DHT22;6987;19.472;-99.276;2022-08-21T18:21:47;21.50;99.90
13833;DHT22;6987;19.472;-99.276;2022-08-21T18:24:16;21.70;99.90
13833;DHT22;6987;19.472;-99.276;2022-08-21T18:26:48;21.80;99.90
13833;DHT22;6987;19.472;-99.276;2022-08-21T18:29:19;21.90;99.90
13833;DHT22;6987;19.472;-99.276;2022-08-21T18:31:49;22.00;99.90
13833;DHT22;6987;19.472;-99.276;2022-08-21T18:34:23;22.00;99.90
13833;DHT22;6987;19.472;-99.276;2022-08-21T18:36:53;21.90;99.90
13833;DHT22;6987;19.472;-99.276;2022-08-21T18:39:24;21.80;99.90
13833;DHT22;6987;19.472;-99.276;2022-08-21T18:41:56;21.60;99.90
13833;DHT22;6987;19.472;-99.276;2022-08-21T18:44:26;21.70;99.90
13833;DHT22;6987;19.472;-99.276;2022-08-21T18:46:57;21.90;99.90
13833;DHT22;6987;19.472;-99.276;2022-08-21T18:49:26;22.40;99.90
13833;DHT22;6987;19.472;-99.276;2022-08-21T18:51:56;22.50;99.90
13833;DHT22;6987;19.472;-99.276;2022-08-21T18:54:26;22.50;99.90
13833;DHT22;6987;19.472;-99.276;2022-08-21T18:56:57;22.90;99.90
13833;DHT22;6987;19.472;-99.276;2022-08-21T18:59:28;23.40;99.90
13833;DHT22;6987;19.472;-99.276;2022-08-21T19:01:58;23.40;99.90
13833;DHT22;6987;19.472;-99.276;2022-08-21T19:04:27;23.20;99.90
13833;DHT22;6987;19.472;-99.276;2022-08-21T19:06:57;22.90;99.90
13833;DHT22;6987;19.472;-99.276;2022-08-21T19:09:26;22.70;99.90
13833;DHT22;6987;19.472;-99.276;2022-08-21T19:11:57;22.60;99.90
13833;DHT22;6987;19.472;-99.276;2022-08-21T19:14:28;22.50;99.90
13833;DHT22;6987;19.472;-99.276;2022-08-21T19:16:59;22.40;99.90
13833;DHT22;6987;19.472;-99.276;2022-08-21T19:19:28;22.70;99.90
13833;DHT22;6987;19.472;-99.276;2022-08-21T19:21:58;22.90;99.90
13833;DHT22;6987;19.472;-99.276;2022-08-21T19:24:27;22.80;99.90
13833;DHT22;6987;19.472;-99.276;2022-08-21T19:26:59;22.70;99.90
13833;DHT22;6987;19.472;-99.276;2022-08-21T19:29:28;22.40;99.90
13833;DHT22;6987;19.472;-99.276;2022-08-21T19:31:57;22.20;99.90
13833;DHT22;6987;19.472;-99.276;2022-08-21T19:34:28;22.20;99.90
13833;DHT22;6987;19.472;-99.276;2022-08-21T19:36:58;22.20;99.90
13833;DHT22;6987;19.472;-99.276;2022-08-21T19:39:27;22.20;99.90
13833;DHT22;6987;19.472;-99.276;2022-08-21T19:42:01;22.00;99.90
13833;DHT22;6987;19.472;-99.276;2022-08-21T19:44:30;22.00;99.90
13833;DHT22;6987;19.472;-99.276;2022-08-21T19:47:01;21.90;99.90
13833;DHT22;6987;19.472;-99.276;2022-08-21T19:49:32;21.90;99.90
13833;DHT22;6987;19.472;-99.276;2022-08-21T19:52:02;21.90;99.90
13833;DHT22;6987;19.472;-99.276;2022-08-21T19:54:32;21.80;99.90
13833;DHT22;6987;19.472;-99.276;2022-08-21T19:57:05;21.70;99.90
13833;DHT22;6987;19.472;-99.276;2022-08-21T19:59:36;21.60;99.90
13833;DHT22;6987;19.472;-99.276;2022-08-21T20:02:07;21.50;99.90
13833;DHT22;6987;19.472;-99.276;2022-08-21T20:04:37;21.40;99.90
13833;DHT22;6987;19.472;-99.276;2022-08-21T20:07:06;21.30;99.90
13833;DHT22;6987;19.472;-99.276;2022-08-21T20:09:35;21.30;99.90
13833;DHT22;6987;19.472;-99.276;2022-08-21T20:12:09;21.10;99.90
13833;DHT22;6987;19.472;-99.276;2022-08-21T20:14:43;21.10;99.90
13833;DHT22;6987;19.472;-99.276;2022-08-21T20:17:16;21.00;99.90
13833;DHT22;6987;19.472;-99.276;2022-08-21T20:19:47;20.90;99.90
13833;DHT22;6987;19.472;-99.276;2022-08-21T20:22:16;20.80;99.90
13833;DHT22;6987;19.472;-99.276;2022-08-21T20:24:46;20.70;99.90
13833;DHT22;6987;19.472;-99.276;2022-08-21T20:27:20;20.60;99.90
13833;DHT22;6987;19.472;-99.276;2022-08-21T20:29:49;20.50;99.90
13833;DHT22;6987;19.472;-99.276;2022-08-21T20:32:19;20.50;99.90
13833;DHT22;6987;19.472;-99.276;2022-08-21T20:34:49;20.50;99.90
13833;DHT22;6987;19.472;-99.276;2022-08-21T20:37:18;20.60;99.90
13833;DHT22;6987;19.472;-99.276;2022-08-21T20:39:47;20.60;99.90
13833;DHT22;6987;19.472;-99.276;2022-08-21T20:42:19;20.60;99.90
13833;DHT22;6987;19.472;-99.276;2022-08-21T20:44:48;20.60;99.90
13833;DHT22;6987;19.472;-99.276;2022-08-21T20:47:19;20.70;99.90
13833;DHT22;6987;19.472;-99.276;2022-08-21T20:49:52;20.70;99.90
13833;DHT22;6987;19.472;-99.276;2022-08-21T20:52:24;20.70;99.90
13833;DHT22;6987;19.472;-99.276;2022-08-21T20:54:56;20.80;99.90
13833;DHT22;6987;19.472;-99.276;2022-08-21T20:57:35;20.80;99.90
13833;DHT22;6987;19.472;-99.276;2022-08-21T21:00:08;20.70;99.90
13833;DHT22;6987;19.472;-99.276;2022-08-21T21:02:44;20.70;99.90
13833;DHT22;6987;19.472;-99.276;2022-08-21T21:05:18;20.70;99.90
13833;DHT22;6987;19.472;-99.276;2022-08-21T21:07:54;20.60;99.90
13833;DHT22;6987;19.472;-99.276;2022-08-21T21:10:32;20.60;99.90
13833;DHT22;6987;19.472;-99.276;2022-08-21T21:13:08;20.50;99.90
13833;DHT22;6987;19.472;-99.276;2022-08-21T21:15:41;20.50;99.90
13833;DHT22;6987;19.472;-99.276;2022-08-21T21:18:15;20.50;99.90
13833;DHT22;6987;19.472;-99.276;2022-08-21T21:20:50;20.40;99.90
13833;DHT22;6987;19.472;-99.276;2022-08-21T21:23:26;20.40;99.90
13833;DHT22;6987;19.472;-99.276;2022-08-21T21:26:01;20.50;99.90
13833;DHT22;6987;19.472;-99.276;2022-08-21T21:28:39;20.60;99.90
13833;DHT22;6987;19.472;-99.276;2022-08-21T21:31:11;20.80;99.90
13833;DHT22;6987;19.472;-99.276;2022-08-21T21:33:40;21.00;99.90
13833;DHT22;6987;19.472;-99.276;2022-08-21T21:36:18;21.00;99.90
13833;DHT22;6987;19.472;-99.276;2022-08-21T21:38:52;21.00;99.90
13833;DHT22;6987;19.472;-99.276;2022-08-21T21:41:33;21.00;99.90
13833;DHT22;6987;19.472;-99.276;2022-08-21T21:44:20;21.10;99.90
13833;DHT22;6987;19.472;-99.276;2022-08-21T21:46:57;21.20;99.90
13833;DHT22;6987;19.472;-99.276;2022-08-21T21:49:38;21.30;99.90
13833;DHT22;6987;19.472;-99.276;2022-08-21T21:52:21;21.30;99.90
13833;DHT22;6987;19.472;-99.276;2022-08-21T21:55:13;21.20;99.90
13833;DHT22;6987;19.472;-99.276;2022-08-21T21:57:52;21.20;99.90
13833;DHT22;6987;19.472;-99.276;2022-08-21T22:00:32;21.60;99.90
13833;DHT22;6987;19.472;-99.276;2022-08-21T22:03:10;22.50;99.90
13833;DHT22;6987;19.472;-99.276;2022-08-21T22:05:53;23.10;99.90
13833;DHT22;6987;19.472;-99.276;2022-08-21T22:08:31;23.40;99.90
13833;DHT22;6987;19.472;-99.276;2022-08-21T22:11:10;23.60;99.90
13833;DHT22;6987;19.472;-99.276;2022-08-21T22:13:55;23.90;99.90
13833;DHT22;6987;19.472;-99.276;2022-08-21T22:16:31;24.10;99.90
13833;DHT22;6987;19.472;-99.276;2022-08-21T22:19:06;23.90;99.90
13833;DHT22;6987;19.472;-99.276;2022-08-21T22:21:40;23.90;99.90
13833;DHT22;6987;19.472;-99.276;2022-08-21T22:24:15;23.80;99.90
13833;DHT22;6987;19.472;-99.276;2022-08-21T22:26:48;23.70;99.90
13833;DHT22;6987;19.472;-99.276;2022-08-21T22:29:20;23.60;99.90
13833;DHT22;6987;19.472;-99.276;2022-08-21T22:32:06;23.40;99.90
13833;DHT22;6987;19.472;-99.276;2022-08-21T22:34:36;23.30;99.90
13833;DHT22;6987;19.472;-99.276;2022-08-21T22:37:08;23.20;99.90
13833;DHT22;6987;19.472;-99.276;2022-08-21T22:39:40;23.10;99.90
13833;DHT22;6987;19.472;-99.276;2022-08-21T22:42:11;22.90;99.90
13833;DHT22;6987;19.472;-99.276;2022-08-21T22:44:49;22.70;99.90
13833;DHT22;6987;19.472;-99.276;2022-08-21T22:47:23;22.70;99.90
13833;DHT22;6987;19.472;-99.276;2022-08-21T22:49:54;22.50;99.90
13833;DHT22;6987;19.472;-99.276;2022-08-21T22:52:26;22.40;99.90
13833;DHT22;6987;19.472;-99.276;2022-08-21T22:54:59;22.30;99.90
13833;DHT22;6987;19.472;-99.276;2022-08-21T22:57:31;22.20;99.90
13833;DHT22;6987;19.472;-99.276;2022-08-21T23:00:05;22.10;99.90
13833;DHT22;6987;19.472;-99.276;2022-08-21T23:02:42;22.10;99.90
13833;DHT22;6987;19.472;-99.276;2022-08-21T23:05:18;22.10;99.90
13833;DHT22;6987;19.472;-99.276;2022-08-21T23:07:48;21.90;99.90
13833;DHT22;6987;19.472;-99.276;2022-08-21T23:10:24;21.80;99.90
13833;DHT22;6987;19.472;-99.276;2022-08-21T23:12:59;21.80;99.90
13833;DHT22;6987;19.472;-99.276;2022-08-21T23:15:34;21.80;99.90
13833;DHT22;6987;19.472;-99.276;2022-08-21T23:18:13;21.70;99.90
13833;DHT22;6987;19.472;-99.276;2022-08-21T23:20:54;21.60;99.90
13833;DHT22;6987;19.472;-99.276;2022-08-21T23:23:26;21.50;99.90
13833;DHT22;6987;19.472;-99.276;2022-08-21T23:26:09;21.40;99.90
13833;DHT22;6987;19.472;-99.276;2022-08-21T23:28:49;21.40;99.90
13833;DHT22;6987;19.472;-99.276;2022-08-21T23:31:28;21.20;99.90
13833;DHT22;6987;19.472;-99.276;2022-08-21T23:34:06;21.10;99.90
13833;DHT22;6987;19.472;-99.276;2022-08-21T23:36:50;21.00;99.90
13833;DHT22;6987;19.472;-99.276;2022-08-21T23:39:46;20.90;99.90
13833;DHT22;6987;19.472;-99.276;2022-08-21T23:42:26;20.90;99.90
13833;DHT22;6987;19.472;-99.276;2022-08-21T23:45:03;20.80;99.90
13833;DHT22;6987;19.472;-99.276;2022-08-21T23:47:41;20.70;99.90
13833;DHT22;6987;19.472;-99.276;2022-08-21T23:50:21;20.60;99.90
13833;DHT22;6987;19.472;-99.276;2022-08-21T23:53:07;20.60;99.90
13833;DHT22;6987;19.472;-99.276;2022-08-21T23:55:48;20.40;99.90
13833;DHT22;6987;19.472;-99.276;2022-08-21T23:58:29;20.30;99.90
